Terminal Aerodrome Forecast
Issued by NWS

Current Version | Previous Version | Text Only | Print | Product List | Glossary Off
Versions: 1 2 3 4 5 6 7 8 9 10 11 12 13 14 15 16 17

000
FTUS41 KRNK 282342
TAFLWB
TAF
KLWB 282342Z 2900/2924 23004KT P6SM SCT080 OVC250
     FM290500 24006KT P6SM -SHRA BKN050 OVC080
      TEMPO 2908/2912 3SM -SHRA BR BKN027 OVC050
     FM291300 28008G16KT P6SM -RA BKN020 OVC030
     FM291800 29010G20KT P6SM BKN025=

USA.gov is the U.S. government's official web portal to all federal, state and local government web resources and services.